createdAt,value
2019-05-07T00:01:23.066Z,7.71
2019-05-07T00:03:52.895Z,7.67
2019-05-07T00:06:23.096Z,7.64
2019-05-07T00:08:53.089Z,7.61
2019-05-07T00:11:22.472Z,7.59
2019-05-07T00:13:52.242Z,7.60
2019-05-07T00:16:22.455Z,7.59
2019-05-07T00:18:52.550Z,7.58
2019-05-07T00:21:23.296Z,7.59
2019-05-07T00:23:52.789Z,7.59
2019-05-07T00:26:22.595Z,7.58
2019-05-07T00:28:52.664Z,7.57
2019-05-07T00:31:23.265Z,7.58
2019-05-07T00:33:52.689Z,7.60
2019-05-07T00:39:32.783Z,7.60
2019-05-07T00:42:12.589Z,7.59
2019-05-07T00:44:57.419Z,7.57
2019-05-07T00:47:26.764Z,7.54
2019-05-07T00:49:57.806Z,7.53
2019-05-07T00:52:27.120Z,7.49
2019-05-07T00:54:56.256Z,7.43
2019-05-07T00:57:25.421Z,7.42
2019-05-07T00:59:54.645Z,7.40
2019-05-07T01:02:23.778Z,7.30
2019-05-07T01:04:53.331Z,7.38
2019-05-07T01:07:23.117Z,7.36
2019-05-07T01:09:52.611Z,7.34
2019-05-07T01:12:22.342Z,7.34
2019-05-07T01:14:52.908Z,7.29
2019-05-07T01:17:22.808Z,7.26
2019-05-07T01:19:53.209Z,7.24
2019-05-07T01:22:22.536Z,7.21
2019-05-07T01:24:52.641Z,7.18
2019-05-07T01:27:22.644Z,7.18
2019-05-07T01:29:52.810Z,7.15
2019-05-07T01:32:34.526Z,7.11
2019-05-07T01:35:22.651Z,7.08
2019-05-07T01:37:52.439Z,7.07
2019-05-07T01:40:22.791Z,7.01
2019-05-07T01:42:53.046Z,6.97
2019-05-07T01:45:25.004Z,5.99
2019-05-07T01:47:53.376Z,6.89
2019-05-07T01:50:22.854Z,6.84
2019-05-07T01:52:52.349Z,6.79
2019-05-07T01:55:22.605Z,6.76
2019-05-07T01:57:52.389Z,6.71
2019-05-07T02:00:22.426Z,6.68
2019-05-07T02:02:59.895Z,6.66
2019-05-07T02:05:35.469Z,6.64
2019-05-07T02:08:07.334Z,6.60
2019-05-07T02:10:42.795Z,6.57
2019-05-07T02:13:12.590Z,6.52
2019-05-07T02:15:42.852Z,6.48
2019-05-07T02:18:12.733Z,6.44
2019-05-07T02:20:42.602Z,6.38
2019-05-07T02:23:12.802Z,6.34
2019-05-07T02:25:42.758Z,6.30
2019-05-07T02:28:12.849Z,6.25
2019-05-07T02:30:44.369Z,6.21
2019-05-07T02:33:13.724Z,6.19
2019-05-07T02:35:44.039Z,6.17
2019-05-07T02:38:18.660Z,6.13
2019-05-07T02:40:53.430Z,6.07
2019-05-07T02:43:22.987Z,5.97
2019-05-07T02:49:03.132Z,5.82
2019-05-07T02:51:37.321Z,5.76
2019-05-07T02:54:16.563Z,5.66
2019-05-07T02:56:45.713Z,5.66
2019-05-07T02:59:14.871Z,5.63
2019-05-07T03:01:44.397Z,5.61
2019-05-07T03:04:13.559Z,5.56
2019-05-07T03:06:44.273Z,5.49
2019-05-07T03:09:14.376Z,5.47
2019-05-07T03:11:43.937Z,5.41
2019-05-07T03:14:14.067Z,5.37
2019-05-07T03:16:47.825Z,5.34
2019-05-07T03:19:14.394Z,5.29
2019-05-07T03:21:55.694Z,5.28
2019-05-07T03:24:34.229Z,5.25
2019-05-07T03:27:03.455Z,5.22
2019-05-07T03:29:33.558Z,5.18
2019-05-07T03:32:39.400Z,5.15
2019-05-07T03:35:45.848Z,5.13
2019-05-07T03:38:13.207Z,5.13
2019-05-07T03:40:44.493Z,5.13
2019-05-07T03:43:13.827Z,5.11
2019-05-07T03:45:53.995Z,5.10
2019-05-07T03:48:24.910Z,5.09
2019-05-07T03:50:54.030Z,5.07
2019-05-07T03:53:23.601Z,5.05
2019-05-07T03:55:53.687Z,5.03
2019-05-07T03:58:23.855Z,5.01
2019-05-07T04:00:53.872Z,4.99
2019-05-07T04:03:24.227Z,4.96
2019-05-07T04:05:55.380Z,4.95
2019-05-07T04:08:24.541Z,4.93
2019-05-07T04:10:54.205Z,4.93
2019-05-07T04:13:24.242Z,4.94
2019-05-07T04:15:53.785Z,4.96
2019-05-07T04:18:23.810Z,4.99
2019-05-07T04:20:54.004Z,5.02
2019-05-07T04:23:23.739Z,5.07
2019-05-07T04:29:06.517Z,5.15
2019-05-07T04:31:42.983Z,5.20
2019-05-07T04:34:23.740Z,5.24
2019-05-07T04:36:53.504Z,5.27
2019-05-07T04:39:23.418Z,5.31
2019-05-07T04:41:53.220Z,5.34
2019-05-07T04:44:23.562Z,5.36
2019-05-07T04:46:53.456Z,5.38
2019-05-07T04:49:23.901Z,5.40
2019-05-07T04:52:15.557Z,5.43
2019-05-07T04:54:44.760Z,5.45
2019-05-07T04:57:25.920Z,5.48
2019-05-07T04:59:56.593Z,5.51
2019-05-07T05:02:37.086Z,5.53
2019-05-07T05:05:06.288Z,5.57
2019-05-07T05:07:35.429Z,5.62
2019-05-07T05:10:04.797Z,5.63
2019-05-07T05:12:33.901Z,5.65
2019-05-07T05:15:03.065Z,5.68
2019-05-07T05:17:32.238Z,5.74
2019-05-07T05:20:03.523Z,5.83
2019-05-07T05:23:06.649Z,5.92
2019-05-07T05:25:37.936Z,5.99
2019-05-07T05:28:07.101Z,6.11
2019-05-07T05:30:49.430Z,6.22
2019-05-07T05:33:18.541Z,6.33
2019-05-07T05:35:47.697Z,6.43
2019-05-07T05:38:27.030Z,6.51
2019-05-07T05:40:56.313Z,6.59
2019-05-07T05:43:32.031Z,6.71
2019-05-07T05:46:02.840Z,6.83
2019-05-07T05:48:33.434Z,7.00
2019-05-07T05:51:11.830Z,7.16
2019-05-07T05:54:05.501Z,7.32
2019-05-07T05:56:46.703Z,7.43
2019-05-07T05:59:50.206Z,7.49
2019-05-07T06:02:38.705Z,7.52
2019-05-07T06:05:39.285Z,7.60
2019-05-07T06:08:20.064Z,7.67
2019-05-07T06:10:59.703Z,7.64
2019-05-07T06:13:41.938Z,7.67
2019-05-07T06:16:16.789Z,7.76
2019-05-07T06:18:53.401Z,7.88
2019-05-07T06:21:47.598Z,7.95
2019-05-07T06:24:19.788Z,8.00
2019-05-07T06:26:48.887Z,8.03
2019-05-07T06:29:20.012Z,8.03
2019-05-07T06:32:03.353Z,8.05
2019-05-07T06:34:34.261Z,8.15
2019-05-07T06:37:03.625Z,8.25
2019-05-07T06:39:39.354Z,8.32
2019-05-07T06:42:26.292Z,8.38
2019-05-07T06:45:18.814Z,8.52
2019-05-07T06:47:47.986Z,8.61
2019-05-07T06:50:17.110Z,8.67
2019-05-07T06:52:46.234Z,8.64
2019-05-07T06:55:15.570Z,8.68
2019-05-07T06:57:44.794Z,8.73
2019-05-07T07:00:33.746Z,8.76
2019-05-07T07:03:12.714Z,8.83
2019-05-07T07:06:03.638Z,8.79
2019-05-07T07:08:38.188Z,8.86
2019-05-07T07:11:22.445Z,9.06
2019-05-07T07:13:52.002Z,9.22
2019-05-07T07:16:22.624Z,9.31
2019-05-07T07:18:55.332Z,9.30
2019-05-07T07:21:22.674Z,9.13
2019-05-07T07:23:52.388Z,8.94
2019-05-07T07:26:22.197Z,8.98
2019-05-07T07:28:52.492Z,9.20
2019-05-07T07:31:28.021Z,9.51
2019-05-07T07:33:58.254Z,9.81
2019-05-07T07:36:31.914Z,10.15
2019-05-07T07:39:02.073Z,10.67
2019-05-07T07:41:43.217Z,11.00
2019-05-07T07:44:13.316Z,11.32
2019-05-07T07:46:42.663Z,11.87
2019-05-07T07:49:14.881Z,11.99
2019-05-07T07:51:45.629Z,11.97
2019-05-07T07:54:13.723Z,12.57
2019-05-07T07:56:53.171Z,14.11
2019-05-07T07:59:37.368Z,14.89
2019-05-07T08:02:42.439Z,15.07
2019-05-07T08:05:12.497Z,14.77
2019-05-07T08:07:42.637Z,14.13
2019-05-07T08:10:12.945Z,13.56
2019-05-07T08:12:42.298Z,12.85
2019-05-07T08:15:18.187Z,12.29
2019-05-07T08:17:42.468Z,12.13
2019-05-07T08:20:12.765Z,11.93
2019-05-07T08:22:42.400Z,11.83
2019-05-07T08:25:12.573Z,11.80
2019-05-07T08:27:42.085Z,11.78
2019-05-07T08:30:14.088Z,11.71
2019-05-07T08:32:50.209Z,11.61
2019-05-07T08:35:41.929Z,11.51
2019-05-07T08:38:12.772Z,11.76
2019-05-07T08:40:42.077Z,12.27
2019-05-07T08:43:12.607Z,12.62
2019-05-07T08:46:12.903Z,12.74
2019-05-07T08:48:47.447Z,12.69
2019-05-07T08:51:16.625Z,12.55
2019-05-07T08:53:47.419Z,12.45
2019-05-07T08:56:16.573Z,12.36
2019-05-07T08:58:45.709Z,12.28
2019-05-07T09:01:14.879Z,12.21
2019-05-07T09:03:43.998Z,12.24
2019-05-07T09:06:14.348Z,12.27
2019-05-07T09:08:43.756Z,12.26
2019-05-07T09:11:13.435Z,12.21
2019-05-07T09:13:42.773Z,12.19
2019-05-07T09:16:13.008Z,12.14
2019-05-07T09:18:42.387Z,12.11
2019-05-07T09:21:12.604Z,12.11
2019-05-07T09:23:42.488Z,12.18
2019-05-07T09:26:13.383Z,12.31
2019-05-07T09:29:11.809Z,12.45
2019-05-07T09:32:15.129Z,12.48
2019-05-07T09:34:46.330Z,12.42
2019-05-07T09:37:18.937Z,12.30
2019-05-07T09:39:48.127Z,12.20
2019-05-07T09:42:17.367Z,12.11
2019-05-07T09:44:46.525Z,11.94
2019-05-07T09:47:15.643Z,11.71
2019-05-07T09:49:44.789Z,11.56
2019-05-07T09:52:13.903Z,11.58
2019-05-07T09:54:43.080Z,11.69
2019-05-07T09:57:27.702Z,11.89
2019-05-07T09:59:43.141Z,12.12
2019-05-07T10:02:12.385Z,12.36
2019-05-07T10:04:41.837Z,12.63
2019-05-07T10:07:12.729Z,12.69
2019-05-07T10:09:42.683Z,12.64
2019-05-07T10:12:25.395Z,12.64
2019-05-07T10:14:54.637Z,12.51
2019-05-07T10:17:33.621Z,12.26
2019-05-07T10:20:07.249Z,12.10
2019-05-07T10:22:36.381Z,10.37
2019-05-07T10:25:06.017Z,11.97
2019-05-07T10:27:35.155Z,11.93
2019-05-07T10:30:04.681Z,12.17
2019-05-07T10:32:33.812Z,12.22
2019-05-07T10:35:02.978Z,12.31
2019-05-07T10:37:32.163Z,12.29
2019-05-07T10:40:03.099Z,12.47
2019-05-07T10:42:32.536Z,12.49
2019-05-07T10:45:21.904Z,12.63
2019-05-07T10:48:11.669Z,12.82
2019-05-07T10:50:42.840Z,12.98
2019-05-07T10:53:12.541Z,13.13
2019-05-07T10:55:42.882Z,13.16
2019-05-07T10:58:12.667Z,13.11
2019-05-07T11:00:42.399Z,13.12
2019-05-07T11:03:12.682Z,13.05
2019-05-07T11:05:42.064Z,13.08
2019-05-07T11:08:11.442Z,13.15
2019-05-07T11:10:41.882Z,13.16
2019-05-07T11:13:12.811Z,13.17
2019-05-07T11:15:43.831Z,13.24
2019-05-07T11:18:21.831Z,13.29
2019-05-07T11:20:53.526Z,13.31
2019-05-07T11:23:22.305Z,13.37
2019-05-07T11:25:52.640Z,13.45
2019-05-07T11:28:22.720Z,13.50
2019-05-07T11:30:51.955Z,13.56
2019-05-07T11:33:22.060Z,13.59
2019-05-07T11:35:52.771Z,13.60
2019-05-07T11:38:24.838Z,13.61
2019-05-07T11:40:52.900Z,13.52
2019-05-07T11:43:43.823Z,13.51
2019-05-07T11:46:32.795Z,13.55
2019-05-07T11:49:22.740Z,13.44
2019-05-07T11:52:07.271Z,13.57
2019-05-07T11:54:36.425Z,13.88
2019-05-07T11:57:05.666Z,14.12
2019-05-07T11:59:34.800Z,14.37
2019-05-07T12:02:05.807Z,14.67
2019-05-07T12:04:34.984Z,14.80
2019-05-07T12:07:04.103Z,14.95
2019-05-07T12:09:33.465Z,14.97
2019-05-07T12:12:02.652Z,14.82
2019-05-07T12:14:34.861Z,14.50
2019-05-07T12:17:02.876Z,14.26
2019-05-07T12:19:33.115Z,14.26
2019-05-07T12:22:03.098Z,14.31
2019-05-07T12:24:39.360Z,14.50
2019-05-07T12:27:08.642Z,14.70
2019-05-07T12:29:37.964Z,14.92
2019-05-07T12:32:22.044Z,15.09
2019-05-07T12:34:57.275Z,14.94
2019-05-07T12:37:26.420Z,14.89
2019-05-07T12:39:55.565Z,15.13
2019-05-07T12:42:24.678Z,15.36
2019-05-07T12:44:53.833Z,15.44
2019-05-07T12:47:22.964Z,15.53
2019-05-07T12:49:52.100Z,15.61
2019-05-07T12:52:36.556Z,15.73
2019-05-07T12:55:11.906Z,15.81
2019-05-07T12:57:42.072Z,15.89
2019-05-07T13:00:32.206Z,15.99
2019-05-07T13:03:18.386Z,16.06
2019-05-07T13:05:47.562Z,16.31
2019-05-07T13:08:16.885Z,16.56
2019-05-07T13:10:46.044Z,16.73
2019-05-07T13:13:15.222Z,16.70
2019-05-07T13:15:44.348Z,16.80
2019-05-07T13:18:13.500Z,16.82
2019-05-07T13:20:42.680Z,16.72
2019-05-07T13:23:12.066Z,16.47
2019-05-07T13:25:42.965Z,16.32
2019-05-07T13:28:12.349Z,16.13
2019-05-07T13:30:43.617Z,16.05
2019-05-07T13:33:13.303Z,16.07
2019-05-07T13:35:44.406Z,16.13
2019-05-07T13:38:48.315Z,16.08
2019-05-07T13:41:35.378Z,15.93
2019-05-07T13:44:38.652Z,15.84
2019-05-07T13:47:27.810Z,14.62
2019-05-07T13:49:57.170Z,15.94
2019-05-07T13:52:26.417Z,15.93
2019-05-07T13:54:55.755Z,15.88
2019-05-07T13:57:24.996Z,15.80
2019-05-07T13:59:54.565Z,15.78
2019-05-07T14:02:25.646Z,15.77
2019-05-07T14:04:54.906Z,15.76
2019-05-07T14:07:24.927Z,15.78
2019-05-07T14:09:54.055Z,15.76
2019-05-07T14:12:23.325Z,15.73
2019-05-07T14:14:53.164Z,15.62
2019-05-07T14:17:22.664Z,15.51
2019-05-07T14:19:53.086Z,15.44
2019-05-07T14:22:22.828Z,15.40
2019-05-07T14:24:53.073Z,15.41
2019-05-07T14:27:22.409Z,15.43
2019-05-07T14:29:52.191Z,15.43
2019-05-07T14:32:30.963Z,15.43
2019-05-07T14:35:12.734Z,15.53
2019-05-07T14:37:48.241Z,15.56
2019-05-07T14:40:17.473Z,15.60
2019-05-07T14:42:52.511Z,15.61
2019-05-07T14:45:23.761Z,15.61
2019-05-07T14:47:52.700Z,15.59
2019-05-07T14:50:22.590Z,15.56
2019-05-07T14:52:55.040Z,15.55
2019-05-07T14:55:22.822Z,15.54
2019-05-07T14:57:52.490Z,15.53
2019-05-07T15:00:22.550Z,15.53
2019-05-07T15:02:52.467Z,15.56
2019-05-07T15:05:22.331Z,15.56
2019-05-07T15:07:51.677Z,15.49
2019-05-07T15:10:22.238Z,15.43
2019-05-07T15:12:52.150Z,15.40
2019-05-07T15:15:22.049Z,15.32
2019-05-07T15:17:59.203Z,15.21
2019-05-07T15:20:28.571Z,15.09
2019-05-07T15:23:11.976Z,14.89
2019-05-07T15:25:41.968Z,14.42
2019-05-07T15:28:12.272Z,14.33
2019-05-07T15:30:49.066Z,14.24
2019-05-07T15:33:18.224Z,14.21
2019-05-07T15:35:47.356Z,14.19
2019-05-07T15:38:16.525Z,13.85
2019-05-07T15:40:45.669Z,13.63
2019-05-07T15:43:14.847Z,13.51
2019-05-07T15:45:43.956Z,13.33
2019-05-07T15:48:13.214Z,13.22
2019-05-07T15:50:42.856Z,13.13
2019-05-07T15:53:17.610Z,13.09
2019-05-07T15:55:46.736Z,13.02
2019-05-07T15:58:15.940Z,13.03
2019-05-07T16:00:45.040Z,13.10
2019-05-07T16:03:22.269Z,13.16
2019-05-07T16:05:53.014Z,13.15
2019-05-07T16:08:22.761Z,13.15
2019-05-07T16:10:53.137Z,13.21
2019-05-07T16:13:26.144Z,13.25
2019-05-07T16:15:55.297Z,13.31
2019-05-07T16:18:29.322Z,13.34
2019-05-07T16:20:58.502Z,13.36
2019-05-07T16:23:27.659Z,11.52
2019-05-07T16:25:56.812Z,13.40
2019-05-07T16:28:25.928Z,13.42
2019-05-07T16:30:55.132Z,13.42
2019-05-07T16:33:24.276Z,13.44
2019-05-07T16:35:53.423Z,13.47
2019-05-07T16:38:22.591Z,13.38
2019-05-07T16:40:52.170Z,13.40
2019-05-07T16:43:22.116Z,13.32
2019-05-07T16:45:51.870Z,12.00
2019-05-07T16:48:23.118Z,13.19
2019-05-07T16:50:52.331Z,12.99
2019-05-07T16:53:29.671Z,12.80
2019-05-07T16:55:52.438Z,12.68
2019-05-07T16:58:43.631Z,12.69
2019-05-07T17:01:13.039Z,12.60
2019-05-07T17:03:55.033Z,12.55
2019-05-07T17:06:25.225Z,12.55
2019-05-07T17:09:19.731Z,12.56
2019-05-07T17:11:48.899Z,12.56
2019-05-07T17:14:18.048Z,12.50
2019-05-07T17:16:47.543Z,12.32
2019-05-07T17:19:16.664Z,9.93
2019-05-07T17:21:45.823Z,12.33
2019-05-07T17:24:15.057Z,12.31
2019-05-07T17:26:44.228Z,12.29
2019-05-07T17:29:13.360Z,12.26
2019-05-07T17:31:42.665Z,12.25
2019-05-07T17:34:11.964Z,12.29
2019-05-07T17:36:42.155Z,12.25
2019-05-07T17:39:12.119Z,12.18
2019-05-07T17:41:42.893Z,12.17
2019-05-07T17:44:12.301Z,12.15
2019-05-07T17:46:42.845Z,12.15
2019-05-07T17:49:12.309Z,12.18
2019-05-07T17:51:44.660Z,12.14
2019-05-07T17:54:14.117Z,12.12
2019-05-07T17:56:43.400Z,12.10
2019-05-07T17:59:12.756Z,12.11
2019-05-07T18:02:16.081Z,12.15
2019-05-07T18:04:51.551Z,12.16
2019-05-07T18:07:18.423Z,12.10
2019-05-07T18:09:47.582Z,12.07
2019-05-07T18:12:16.735Z,12.02
2019-05-07T18:14:45.887Z,11.97
2019-05-07T18:17:22.123Z,11.82
2019-05-07T18:19:51.161Z,11.57
2019-05-07T18:22:22.121Z,11.49
2019-05-07T18:24:51.407Z,11.38
2019-05-07T18:27:24.744Z,11.28
2019-05-07T18:29:53.906Z,11.26
2019-05-07T18:32:27.419Z,11.22
2019-05-07T18:34:56.587Z,11.19
2019-05-07T18:37:25.833Z,11.12
2019-05-07T18:39:54.998Z,11.09
2019-05-07T18:42:24.329Z,11.10
2019-05-07T18:44:53.450Z,11.09
2019-05-07T18:47:22.605Z,11.09
2019-05-07T18:49:52.024Z,11.06
2019-05-07T18:52:23.025Z,11.04
2019-05-07T18:54:52.209Z,11.03
2019-05-07T18:57:22.210Z,11.02
2019-05-07T18:59:53.110Z,11.01
2019-05-07T19:02:22.717Z,10.99
2019-05-07T19:04:52.024Z,10.98
2019-05-07T19:07:23.069Z,10.95
2019-05-07T19:09:52.632Z,10.92
2019-05-07T19:12:24.446Z,10.89
2019-05-07T19:14:53.669Z,10.85
2019-05-07T19:17:25.527Z,10.80
2019-05-07T19:19:53.718Z,10.76
2019-05-07T19:22:22.853Z,10.73
2019-05-07T19:24:52.711Z,10.68
2019-05-07T19:27:22.139Z,10.62
2019-05-07T19:29:51.259Z,10.53
2019-05-07T19:32:22.718Z,10.43
2019-05-07T19:34:53.281Z,10.37
2019-05-07T19:37:22.440Z,10.25
2019-05-07T19:39:52.352Z,10.16
2019-05-07T19:42:21.618Z,10.08
2019-05-07T19:44:51.881Z,9.99
2019-05-07T19:47:23.182Z,9.94
2019-05-07T19:49:52.547Z,9.91
2019-05-07T19:52:23.100Z,9.82
2019-05-07T19:55:00.872Z,9.76
2019-05-07T19:57:28.294Z,9.70
2019-05-07T19:59:57.444Z,9.63
2019-05-07T20:02:32.105Z,9.59
2019-05-07T20:05:00.471Z,9.53
2019-05-07T20:07:31.859Z,9.45
2019-05-07T20:10:02.701Z,9.39
2019-05-07T20:12:32.701Z,9.30
2019-05-07T20:15:02.791Z,9.21
2019-05-07T20:17:33.964Z,9.10
2019-05-07T20:20:03.191Z,9.03
2019-05-07T20:22:33.286Z,8.96
2019-05-07T20:25:15.274Z,8.90
2019-05-07T20:27:33.356Z,8.85
2019-05-07T20:30:03.123Z,8.77
2019-05-07T20:32:33.036Z,8.71
2019-05-07T20:35:02.818Z,8.65
2019-05-07T20:37:32.989Z,8.23
2019-05-07T20:40:02.994Z,8.52
2019-05-07T20:42:32.855Z,8.47
2019-05-07T20:45:03.021Z,8.43
2019-05-07T20:47:32.662Z,8.39
2019-05-07T20:50:01.985Z,8.34
2019-05-07T20:52:32.565Z,8.30
2019-05-07T20:55:07.911Z,8.24
2019-05-07T20:57:39.711Z,8.18
2019-05-07T21:00:15.163Z,8.13
2019-05-07T21:02:48.158Z,8.09
2019-05-07T21:05:15.283Z,8.03
2019-05-07T21:07:44.417Z,7.97
2019-05-07T21:10:13.527Z,7.95
2019-05-07T21:12:42.680Z,7.91
2019-05-07T21:15:12.440Z,7.88
2019-05-07T21:17:42.865Z,7.82
2019-05-07T21:20:12.210Z,7.79
2019-05-07T21:22:42.561Z,7.77
2019-05-07T21:25:12.075Z,7.75
2019-05-07T21:27:43.174Z,7.74
2019-05-07T21:30:13.148Z,7.70
2019-05-07T21:32:42.341Z,7.66
2019-05-07T21:35:11.573Z,7.61
2019-05-07T21:37:41.793Z,7.58
2019-05-07T21:40:13.026Z,7.51
2019-05-07T21:42:42.607Z,7.46
2019-05-07T21:45:11.719Z,7.41
2019-05-07T21:47:40.871Z,7.38
2019-05-07T21:50:12.302Z,7.38
2019-05-07T21:52:43.461Z,7.35
2019-05-07T21:55:22.905Z,7.34
2019-05-07T21:58:02.500Z,7.30
2019-05-07T22:00:54.143Z,7.25
2019-05-07T22:03:23.543Z,7.20
2019-05-07T22:05:52.671Z,7.16
2019-05-07T22:08:22.048Z,7.10
2019-05-07T22:10:51.201Z,7.05
2019-05-07T22:13:22.071Z,7.01
2019-05-07T22:15:52.193Z,6.97
2019-05-07T22:18:22.654Z,6.93
2019-05-07T22:20:52.283Z,6.87
2019-05-07T22:23:24.467Z,6.83
2019-05-07T22:25:52.293Z,6.80
2019-05-07T22:28:22.457Z,6.75
2019-05-07T22:31:14.344Z,6.71
2019-05-07T22:34:02.434Z,6.66
2019-05-07T22:36:32.717Z,6.65
2019-05-07T22:39:02.117Z,6.60
2019-05-07T22:41:31.868Z,6.55
2019-05-07T22:44:02.533Z,6.50
2019-05-07T22:46:32.702Z,6.46
2019-05-07T22:49:03.095Z,6.44
2019-05-07T22:51:32.365Z,5.71
2019-05-07T22:54:04.136Z,6.43
2019-05-07T22:56:49.868Z,6.40
2019-05-07T22:59:19.008Z,6.38
2019-05-07T23:01:48.164Z,6.33
2019-05-07T23:04:17.353Z,6.31
2019-05-07T23:06:46.468Z,6.29
2019-05-07T23:09:15.618Z,6.23
2019-05-07T23:11:44.748Z,6.21
2019-05-07T23:14:13.911Z,6.18
2019-05-07T23:16:43.147Z,6.14
2019-05-07T23:19:14.047Z,6.07
2019-05-07T23:21:43.106Z,6.03
2019-05-07T23:24:12.221Z,6.02
2019-05-07T23:26:50.347Z,6.01
2019-05-07T23:29:12.271Z,5.98
2019-05-07T23:31:41.379Z,5.98
2019-05-07T23:34:12.467Z,5.96
2019-05-07T23:36:42.198Z,5.95
2019-05-07T23:39:13.151Z,5.95
2019-05-07T23:41:53.368Z,5.93
2019-05-07T23:44:22.979Z,5.90
2019-05-07T23:46:53.360Z,5.84
2019-05-07T23:49:23.216Z,5.80
2019-05-07T23:51:53.176Z,5.78
2019-05-07T23:54:23.142Z,5.74
2019-05-07T23:57:04.916Z,5.75
2019-05-07T23:59:23.232Z,5.75
